aviador You're here:

KTUL Decoded Metar

TULSA in OK, USA
Report Time2018-01-20 04:53:00
UTC Time2018-01-20 05:17:54
Flight Rules vfr VFR
Wind170° at 16 Gusting to 23 kt
W.Decomp.*RWY 18: 15.4 kt HW 4.4 kt LCW
RWY 08: 1.7 kt HW 15.9 kt RCW
W.Rank170° ranks 1
Current wind is above 170° avg. (11.4)
Visibility9999 m
Phenomena:N/A
Clouds:Overcast 250 Hf
Expected CloudBase > 800 ft AGL from Temp-Dew spread
Ceiling25,000 ft
Temp08°C (ISA -6)
Dew Point06°C (87% RH)
AAT1.3°C
QNH1014 hPa
Density Alt98 ft
Elevation679 ft
Report Wrong Elevation
Raw Report
KTUL 200453Z 17016G23KT 10SM OVC250 08/06 A2994 RMK AO2 SLP139
T00830056=

Extra information for KTUL:More info

Metar Taf Metar & Taf Last 4 Metars F.Rules Stats Wind Profile Meteogram Temp Stats Airport Information Weather charts Add Link Nearby VenuesMetar ALERT Operation Metar Decoded Social comments

AIRNAV info for KTUL